Time;durP1;ratioP1;P1;durP2;ratioP2;P2;SDS_P1;SDS_P2;PMS_P1;PMS_P2;Temp;Humidity;BMP_temperature;BMP_pressure;BME280_temperature;BME280_humidity;BME280_pressure;Samples;Min_cycle;Max_cycle;Signal;HPM_P1;HPM_P2
2023/03/28 00:00:48;;;;;;;16.35;2.08;;;2.80;99.90;;;;;;5067029;28;20040;-77
2023/03/28 00:03:17;;;;;;;13.18;1.60;;;2.60;99.90;;;;;;5068388;28;20036;-78
2023/03/28 00:05:47;;;;;;;6.30;0.98;;;2.60;99.90;;;;;;5067048;28;20405;-77
2023/03/28 00:08:14;;;;;;;10.70;1.10;;;2.60;99.90;;;;;;5051162;28;20465;-77
2023/03/28 00:10:40;;;;;;;11.85;1.55;;;2.60;99.90;;;;;;5050786;28;20632;-77
2023/03/28 00:13:05;;;;;;;8.75;2.03;;;2.60;99.90;;;;;;5050549;28;20256;-77
2023/03/28 00:15:31;;;;;;;10.15;1.05;;;2.60;99.90;;;;;;5051308;28;20318;-77
2023/03/28 00:17:59;;;;;;;14.15;1.35;;;2.70;99.90;;;;;;5066400;28;20040;-77
2023/03/28 00:20:28;;;;;;;12.07;1.35;;;3.70;99.90;;;;;;5051412;28;20472;-78
2023/03/28 00:22:54;;;;;;;21.77;2.75;;;2.60;99.90;;;;;;5067026;28;20053;-77
2023/03/28 00:25:20;;;;;;;9.27;1.05;;;2.60;99.90;;;;;;5069151;28;20383;-77
2023/03/28 00:27:46;;;;;;;14.18;1.63;;;2.60;99.90;;;;;;5067726;28;20079;-77
2023/03/28 00:30:12;;;;;;;13.13;1.20;;;3.00;99.90;;;;;;5050138;28;20496;-77
2023/03/28 00:32:38;;;;;;;9.20;1.08;;;2.50;99.90;;;;;;5068015;28;20052;-78
2023/03/28 00:35:04;;;;;;;8.70;2.03;;;2.50;99.90;;;;;;5067648;28;20491;-78
2023/03/28 00:37:30;;;;;;;8.30;1.48;;;2.50;99.90;;;;;;5054378;28;20080;-78
2023/03/28 00:39:58;;;;;;;9.15;2.65;;;2.40;99.90;;;;;;5053938;28;20150;-77
2023/03/28 00:42:24;;;;;;;7.38;1.38;;;2.50;99.90;;;;;;5054862;28;20495;-77
2023/03/28 00:44:55;;;;;;;9.10;1.50;;;2.40;99.90;;;;;;5072585;28;20444;-77
2023/03/28 00:47:26;;;;;;;13.82;1.73;;;2.40;99.90;;;;;;5070587;28;20052;-77
2023/03/28 00:49:58;;;;;;;11.82;1.45;;;2.40;99.90;;;;;;5071111;28;20056;-78
2023/03/28 00:52:28;;;;;;;7.22;1.90;;;3.10;99.90;;;;;;5069771;28;20041;-77
2023/03/28 00:54:56;;;;;;;10.25;1.40;;;2.40;99.90;;;;;;5038224;28;20162;-78
2023/03/28 00:57:24;;;;;;;10.88;1.23;;;2.40;99.90;;;;;;5053780;28;20076;-78
2023/03/28 00:59:50;;;;;;;17.20;1.40;;;2.30;99.90;;;;;;5054071;28;20048;-77
2023/03/28 01:02:17;;;;;;;8.65;1.48;;;2.30;99.90;;;;;;5071021;28;20120;-78
2023/03/28 01:04:53;;;;;;;13.98;1.45;;;2.30;99.90;;;;;;5071141;28;20514;-77
2023/03/28 01:07:19;;;;;;;4.72;0.98;;;2.60;99.90;;;;;;5070997;28;20037;-77
2023/03/28 01:09:46;;;;;;;10.23;0.90;;;2.20;99.90;;;;;;5069727;28;20147;-77
2023/03/28 01:12:15;;;;;;;8.82;1.65;;;2.30;99.90;;;;;;5070750;28;20090;-77
2023/03/28 01:14:42;;;;;;;13.70;1.50;;;2.20;99.90;;;;;;5070496;28;20044;-77
2023/03/28 01:17:09;;;;;;;5.65;1.45;;;2.20;99.90;;;;;;5069897;28;20110;-77
2023/03/28 01:20:06;;;;;;;13.93;1.23;;;2.10;99.90;;;;;;5070685;28;20044;-78
2023/03/28 01:22:43;;;;;;;7.10;1.15;;;2.20;99.90;;;;;;5069761;28;20131;-77
2023/03/28 01:25:32;;;;;;;17.48;1.38;;;2.20;99.90;;;;;;5070744;28;20049;-77
2023/03/28 01:28:06;;;;;;;11.60;1.73;;;2.10;99.90;;;;;;5054033;28;20106;-77
2023/03/28 01:30:38;;;;;;;15.00;1.45;;;2.10;99.90;;;;;;5069174;28;20162;-78
2023/03/28 01:33:09;;;;;;;9.38;1.02;;;2.10;99.90;;;;;;5070572;28;20091;-77
2023/03/28 01:35:54;;;;;;;10.82;1.08;;;2.10;99.90;;;;;;5052524;28;20045;-77
2023/03/28 01:38:32;;;;;;;7.70;1.40;;;2.00;99.90;;;;;;5069860;28;20135;-77
2023/03/28 01:40:57;;;;;;;13.50;1.48;;;2.00;99.90;;;;;;5070402;28;20044;-77
2023/03/28 01:43:51;;;;;;;5.53;0.77;;;3.00;99.90;;;;;;5052394;28;20040;-77
2023/03/28 01:46:22;;;;;;;;;;;2.00;99.90;;;;;;5071154;28;20037;-77
2023/03/28 01:48:53;;;;;;;10.90;1.35;;;2.00;99.90;;;;;;5052687;28;19936;-77
2023/03/28 01:51:30;;;;;;;12.93;1.58;;;2.00;99.90;;;;;;5070682;28;20132;-77
2023/03/28 01:54:14;;;;;;;14.57;1.88;;;1.90;99.90;;;;;;5070190;28;20083;-77
2023/03/28 01:56:58;;;;;;;12.02;2.28;;;2.00;99.90;;;;;;5068698;28;20496;-78
2023/03/28 01:59:37;;;;;;;15.63;1.70;;;1.90;99.90;;;;;;5069986;28;20048;-77
2023/03/28 02:02:32;;;;;;;8.50;1.10;;;1.90;99.90;;;;;;5070074;28;20134;-78
2023/03/28 02:05:03;;;;;;;9.73;1.20;;;1.90;99.90;;;;;;5057787;28;20127;-77
2023/03/28 02:07:32;;;;;;;8.98;0.95;;;1.90;99.90;;;;;;5070223;28;20052;-78
2023/03/28 02:10:00;;;;;;;15.27;1.33;;;1.90;99.90;;;;;;5068459;28;20329;-77
2023/03/28 02:12:33;;;;;;;13.23;1.30;;;1.80;99.90;;;;;;5070866;28;20507;-77
2023/03/28 02:15:03;;;;;;;12.60;1.35;;;1.80;99.90;;;;;;5070012;28;20338;-77
2023/03/28 02:17:33;;;;;;;14.60;3.47;;;1.80;99.90;;;;;;5069903;28;20512;-78
2023/03/28 02:20:10;;;;;;;11.07;2.45;;;1.80;99.90;;;;;;5069468;28;20062;-77
2023/03/28 02:23:16;;;;;;;9.70;1.80;;;1.80;99.90;;;;;;5068670;28;20048;-77
2023/03/28 02:25:41;;;;;;;11.13;1.10;;;1.70;99.90;;;;;;5051854;28;20056;-79
2023/03/28 02:28:09;;;;;;;6.93;1.00;;;2.80;99.90;;;;;;5071027;28;20049;-79
2023/03/28 02:30:37;;;;;;;8.82;1.52;;;1.70;99.90;;;;;;5067896;28;20511;-79
2023/03/28 02:33:08;;;;;;;18.05;3.92;;;1.70;99.90;;;;;;5069375;28;20510;-79
2023/03/28 02:36:07;;;;;;;13.75;1.70;;;1.60;99.90;;;;;;5068711;28;20395;-79
2023/03/28 02:38:39;;;;;;;6.95;1.13;;;1.60;99.90;;;;;;5068540;28;20047;-79
2023/03/28 02:41:22;;;;;;;11.48;1.17;;;1.60;99.90;;;;;;5069233;28;20056;-79
2023/03/28 02:44:09;;;;;;;12.68;1.20;;;1.60;99.90;;;;;;5067909;28;20045;-79
2023/03/28 02:46:48;;;;;;;6.88;1.90;;;1.60;99.90;;;;;;5068789;28;20060;-79
2023/03/28 02:49:27;;;;;;;13.07;1.42;;;1.60;99.90;;;;;;5052001;28;20037;-79
2023/03/28 02:52:10;;;;;;;14.38;1.40;;;1.60;99.90;;;;;;5067581;28;20513;-79
2023/03/28 02:54:50;;;;;;;14.52;1.50;;;1.60;99.90;;;;;;5052436;28;20056;-79
2023/03/28 02:57:47;;;;;;;11.63;1.77;;;1.60;99.90;;;;;;5051688;28;20056;-79
2023/03/28 03:00:17;;;;;;;7.40;1.48;;;1.50;99.90;;;;;;5066170;28;20052;-79
2023/03/28 03:02:48;;;;;;;6.50;1.00;;;1.50;99.90;;;;;;5052263;28;20094;-77
2023/03/28 03:05:14;;;;;;;8.18;0.88;;;1.50;99.90;;;;;;5067438;28;20041;-77
2023/03/28 03:07:41;;;;;;;10.85;1.38;;;1.50;99.90;;;;;;5068514;28;20097;-77
2023/03/28 03:10:09;;;;;;;17.15;1.95;;;1.50;99.90;;;;;;5069721;28;20048;-76
2023/03/28 03:12:35;;;;;;;8.25;1.17;;;1.50;99.90;;;;;;5067860;28;20492;-77
2023/03/28 03:15:03;;;;;;;9.95;1.55;;;1.50;99.90;;;;;;5035264;28;20492;-77
2023/03/28 03:17:29;;;;;;;13.18;1.98;;;1.50;99.90;;;;;;5067270;28;20492;-77
2023/03/28 03:19:55;;;;;;;11.95;1.30;;;1.50;99.90;;;;;;5070266;28;20051;-77
2023/03/28 03:22:21;;;;;;;8.35;1.10;;;1.50;99.90;;;;;;5067478;28;20483;-78
2023/03/28 03:24:49;;;;;;;15.93;2.00;;;1.50;99.90;;;;;;5068765;28;20373;-77
2023/03/28 03:27:17;;;;;;;6.93;1.17;;;1.50;99.90;;;;;;5069485;28;20433;-77
2023/03/28 03:29:43;;;;;;;9.50;0.90;;;1.50;99.90;;;;;;5051023;28;20056;-77
2023/03/28 03:32:09;;;;;;;10.40;1.13;;;1.50;99.90;;;;;;5051758;28;20044;-77
2023/03/28 03:34:35;;;;;;;13.05;0.85;;;1.50;99.90;;;;;;5050674;28;20047;-77
2023/03/28 03:37:03;;;;;;;8.88;1.20;;;1.50;99.90;;;;;;5051638;28;20048;-76
2023/03/28 03:39:29;;;;;;;15.15;1.55;;;1.50;99.90;;;;;;5033775;28;20052;-77
2023/03/28 03:41:55;;;;;;;12.48;1.42;;;2.10;99.90;;;;;;5068374;28;20040;-77
2023/03/28 03:44:21;;;;;;;14.82;1.83;;;1.40;99.90;;;;;;5067874;28;20407;-78
2023/03/28 03:46:47;;;;;;;8.82;1.10;;;1.40;99.90;;;;;;5050964;28;20530;-78
2023/03/28 03:49:13;;;;;;;11.90;1.10;;;1.40;99.90;;;;;;5069281;28;20464;-78
2023/03/28 03:51:39;;;;;;;15.23;2.15;;;1.40;99.90;;;;;;5066883;28;20060;-78
2023/03/28 03:54:05;;;;;;;13.65;1.48;;;1.30;99.90;;;;;;5051540;28;20048;-78
2023/03/28 03:56:31;;;;;;;13.35;1.88;;;1.30;99.90;;;;;;5066724;28;20127;-78
2023/03/28 03:58:57;;;;;;;14.20;1.35;;;1.30;99.90;;;;;;5067968;28;20088;-78
2023/03/28 04:01:24;;;;;;;11.73;1.02;;;1.30;99.90;;;;;;5067195;28;20188;-78
2023/03/28 04:03:50;;;;;;;13.20;1.10;;;1.30;99.90;;;;;;5067444;28;20049;-78
2023/03/28 04:06:17;;;;;;;5.93;1.13;;;1.30;99.90;;;;;;5051212;28;20074;-79
2023/03/28 04:08:43;;;;;;;12.25;1.60;;;1.30;99.90;;;;;;5067025;28;20041;-78
2023/03/28 04:11:09;;;;;;;16.38;1.48;;;1.30;99.90;;;;;;5052641;28;20425;-78
2023/03/28 04:13:35;;;;;;;10.98;1.25;;;1.50;99.90;;;;;;5054295;28;20408;-78
2023/03/28 04:16:01;;;;;;;13.18;1.23;;;1.20;99.90;;;;;;5071925;28;20045;-78
2023/03/28 04:18:28;;;;;;;17.27;2.10;;;2.30;99.90;;;;;;5072239;28;20123;-78
2023/03/28 04:20:57;;;;;;;8.63;0.73;;;2.50;99.90;;;;;;5073165;28;20044;-78
2023/03/28 04:23:26;;;;;;;11.00;1.20;;;1.10;99.90;;;;;;5073354;28;20475;-78
2023/03/28 04:25:56;;;;;;;11.13;1.25;;;2.20;99.90;;;;;;5072027;28;20050;-78
2023/03/28 04:28:24;;;;;;;6.80;0.77;;;0.90;99.90;;;;;;5071788;28;20056;-78
2023/03/28 04:30:56;;;;;;;11.05;1.63;;;1.00;99.90;;;;;;5070411;28;20115;-78
2023/03/28 04:33:24;;;;;;;17.48;2.15;;;1.00;99.90;;;;;;5071531;28;20049;-78
2023/03/28 04:36:00;;;;;;;8.30;1.10;;;0.90;99.90;;;;;;5071062;28;20124;-78
2023/03/28 04:38:31;;;;;;;11.70;1.88;;;0.90;99.90;;;;;;5070473;28;20056;-78
2023/03/28 04:40:58;;;;;;;15.05;1.63;;;0.90;99.90;;;;;;5071509;28;20080;-78
2023/03/28 04:43:24;;;;;;;12.05;1.17;;;0.90;99.90;;;;;;5070012;28;20048;-78
2023/03/28 04:45:51;;;;;;;11.20;2.00;;;0.90;99.90;;;;;;5071683;28;20489;-79
2023/03/28 04:48:16;;;;;;;10.38;1.33;;;-0.50;99.90;;;;;;5070880;28;20048;-79
2023/03/28 04:50:42;;;;;;;11.02;1.75;;;1.60;99.90;;;;;;5054294;28;20416;-79
2023/03/28 04:53:08;;;;;;;18.20;1.50;;;0.90;99.90;;;;;;5072586;28;20049;-79
2023/03/28 04:55:33;;;;;;;13.23;1.45;;;0.90;99.90;;;;;;5070207;28;20496;-78
2023/03/28 04:57:59;;;;;;;10.60;1.85;;;0.80;99.90;;;;;;5071140;28;20052;-82
2023/03/28 05:00:26;;;;;;;13.93;1.95;;;0.80;99.90;;;;;;5070655;28;20048;-82
2023/03/28 05:02:58;;;;;;;11.95;1.70;;;0.80;99.90;;;;;;5040004;28;20044;-84
2023/03/28 05:05:25;;;;;;;13.75;1.70;;;0.80;99.90;;;;;;5058305;28;20128;-87
2023/03/28 05:07:51;;;;;;;10.57;1.85;;;0.80;99.90;;;;;;5055566;28;20047;-78
2023/03/28 05:10:17;;;;;;;8.32;1.65;;;0.70;99.90;;;;;;5053854;28;20055;-79
2023/03/28 05:12:42;;;;;;;8.70;1.52;;;0.70;99.90;;;;;;5071406;28;20044;-80
2023/03/28 05:15:08;;;;;;;15.98;3.35;;;0.70;99.90;;;;;;5054191;28;20047;-79
2023/03/28 05:17:34;;;;;;;14.15;2.67;;;0.70;99.90;;;;;;5071387;28;20040;-79
2023/03/28 05:20:00;;;;;;;13.88;2.97;;;0.70;99.90;;;;;;5072299;28;20051;-79
2023/03/28 05:22:25;;;;;;;12.10;1.23;;;0.70;99.90;;;;;;5069080;28;20055;-79
2023/03/28 05:24:51;;;;;;;9.85;3.15;;;0.70;99.90;;;;;;5053983;28;20058;-79
2023/03/28 05:27:17;;;;;;;9.05;1.58;;;0.70;99.90;;;;;;5071640;28;20352;-79
2023/03/28 05:29:43;;;;;;;10.60;1.80;;;1.90;99.90;;;;;;5071184;28;20055;-78
2023/03/28 05:32:11;;;;;;;14.77;3.85;;;0.80;99.90;;;;;;5072275;28;20415;-79
2023/03/28 05:34:37;;;;;;;25.13;1.80;;;0.80;99.90;;;;;;5069261;28;20044;-78
2023/03/28 05:37:02;;;;;;;17.17;2.50;;;2.00;99.90;;;;;;5070870;28;20044;-79
2023/03/28 05:39:28;;;;;;;8.15;1.60;;;1.10;99.90;;;;;;5052740;28;20118;-78
2023/03/28 05:41:54;;;;;;;6.45;2.05;;;1.00;99.90;;;;;;5070309;28;20040;-78
2023/03/28 05:44:19;;;;;;;10.35;1.55;;;1.10;99.90;;;;;;5053124;28;20059;-78
2023/03/28 05:46:45;;;;;;;12.90;3.60;;;1.40;99.90;;;;;;5071463;28;20177;-78
2023/03/28 05:49:11;;;;;;;19.98;2.05;;;1.20;99.90;;;;;;5071789;28;20131;-78
2023/03/28 05:51:37;;;;;;;7.50;1.85;;;1.30;99.90;;;;;;5070381;28;20053;-78
2023/03/28 05:54:02;;;;;;;11.23;1.92;;;1.40;99.90;;;;;;5071919;28;20041;-78
2023/03/28 05:56:31;;;;;;;11.13;2.15;;;1.40;99.90;;;;;;5068853;28;20040;-78
2023/03/28 05:58:57;;;;;;;7.80;2.35;;;1.40;99.90;;;;;;5070033;28;20089;-78
2023/03/28 06:01:26;;;;;;;14.05;1.95;;;1.70;99.90;;;;;;5069417;28;20079;-78
2023/03/28 06:03:52;;;;;;;8.98;1.45;;;1.60;99.90;;;;;;5069264;28;20048;-78
2023/03/28 06:06:19;;;;;;;13.73;1.92;;;1.60;99.90;;;;;;5069683;28;20048;-78
2023/03/28 06:08:45;;;;;;;17.50;3.13;;;1.80;99.90;;;;;;5035764;28;20094;-78
2023/03/28 06:11:12;;;;;;;5.93;1.60;;;1.90;99.90;;;;;;5053185;28;20052;-78
2023/03/28 06:13:38;;;;;;;17.00;2.20;;;2.00;99.90;;;;;;5068677;28;20321;-78
2023/03/28 06:16:04;;;;;;;12.20;1.83;;;2.50;99.90;;;;;;5053125;28;20331;-79
2023/03/28 06:18:29;;;;;;;16.02;2.45;;;2.20;99.90;;;;;;5069343;28;20080;-79
2023/03/28 06:20:55;;;;;;;13.52;3.20;;;2.30;99.90;;;;;;5053027;28;20076;-79
2023/03/28 06:23:21;;;;;;;11.90;1.40;;;2.50;99.90;;;;;;5069508;28;20499;-78
2023/03/28 06:25:47;;;;;;;11.35;2.20;;;3.40;99.90;;;;;;5068845;28;20415;-78
2023/03/28 06:28:13;;;;;;;16.15;2.30;;;2.70;99.90;;;;;;5069639;28;20047;-78
2023/03/28 06:30:38;;;;;;;12.57;1.95;;;2.80;99.90;;;;;;5051577;28;20051;-79
2023/03/28 06:33:05;;;;;;;15.43;3.67;;;2.90;99.90;;;;;;5052710;28;20041;-79
2023/03/28 06:35:31;;;;;;;17.15;2.30;;;3.00;99.90;;;;;;5068583;28;20454;-78
2023/03/28 06:37:57;;;;;;;15.02;1.88;;;3.00;99.90;;;;;;5069376;28;20048;-79
2023/03/28 06:40:24;;;;;;;12.27;2.63;;;3.10;99.90;;;;;;5052373;28;20045;-78
2023/03/28 06:42:49;;;;;;;18.58;1.73;;;3.20;99.90;;;;;;5051522;28;20054;-78
2023/03/28 06:45:15;;;;;;;10.27;1.80;;;3.20;99.90;;;;;;5052748;28;20058;-78
2023/03/28 06:47:41;;;;;;;19.85;4.38;;;3.20;99.90;;;;;;5068077;28;20055;-78
2023/03/28 06:50:07;;;;;;;10.07;1.88;;;3.30;99.90;;;;;;5068825;28;20504;-79
2023/03/28 06:52:33;;;;;;;8.63;1.90;;;3.30;99.90;;;;;;5051722;28;20502;-78
2023/03/28 06:54:59;;;;;;;12.23;2.03;;;3.30;99.90;;;;;;5069178;28;20056;-79
2023/03/28 06:57:24;;;;;;;8.88;1.58;;;3.30;99.90;;;;;;5052133;28;20048;-79
2023/03/28 06:59:51;;;;;;;16.60;2.00;;;3.30;99.90;;;;;;5068112;28;20063;-79
2023/03/28 07:02:17;;;;;;;19.13;1.40;;;4.80;99.90;;;;;;5053030;28;20040;-79
2023/03/28 07:04:43;;;;;;;16.45;1.73;;;3.20;99.90;;;;;;5067928;28;20453;-81
2023/03/28 07:07:09;;;;;;;6.88;1.45;;;3.20;99.90;;;;;;5070610;28;20555;-79
2023/03/28 07:09:35;;;;;;;9.43;1.50;;;3.30;99.90;;;;;;5067755;28;20169;-79
2023/03/28 07:12:01;;;;;;;14.20;1.75;;;3.10;99.90;;;;;;5069965;28;20041;-79
2023/03/28 07:14:27;;;;;;;14.30;2.58;;;4.70;99.90;;;;;;5052390;28;20044;-79
2023/03/28 07:16:53;;;;;;;11.65;1.50;;;3.30;99.90;;;;;;5070025;28;20502;-79
2023/03/28 07:19:19;;;;;;;10.05;1.40;;;3.40;99.90;;;;;;5070980;28;20041;-78
2023/03/28 07:21:45;;;;;;;10.60;1.63;;;3.50;99.90;;;;;;5069304;28;20052;-79
2023/03/28 07:24:11;;;;;;;15.25;1.80;;;3.60;99.90;;;;;;5070157;28;20048;-79
2023/03/28 07:26:37;;;;;;;15.20;1.60;;;5.00;99.90;;;;;;5069067;28;20592;-79
2023/03/28 07:29:02;;;;;;;10.02;1.73;;;4.50;99.90;;;;;;5071541;28;20037;-79
2023/03/28 07:31:28;;;;;;;10.93;1.55;;;4.00;99.90;;;;;;5069019;28;20064;-78
2023/03/28 07:33:57;;;;;;;9.88;1.65;;;4.50;99.90;;;;;;5071338;28;20049;-79
2023/03/28 07:36:25;;;;;;;8.95;1.70;;;5.00;99.90;;;;;;5068637;28;20045;-80
2023/03/28 07:38:51;;;;;;;11.35;1.30;;;4.40;99.90;;;;;;5069502;28;20516;-78
2023/03/28 07:41:17;;;;;;;11.63;1.40;;;4.50;99.90;;;;;;5069208;28;20084;-78
2023/03/28 07:43:43;;;;;;;7.22;1.17;;;4.60;99.90;;;;;;5070336;28;20048;-79
2023/03/28 07:46:13;;;;;;;8.60;1.80;;;4.90;99.90;;;;;;5052934;28;20040;-78
2023/03/28 07:48:42;;;;;;;8.18;1.17;;;5.50;99.90;;;;;;5068459;28;20048;-79
2023/03/28 07:51:09;;;;;;;11.88;1.45;;;5.00;99.90;;;;;;5070142;28;20089;-78
2023/03/28 07:53:36;;;;;;;6.55;1.33;;;5.20;99.90;;;;;;5068288;28;20044;-79
2023/03/28 07:56:10;;;;;;;6.57;1.33;;;5.30;99.90;;;;;;5069990;28;20470;-79
2023/03/28 07:58:40;;;;;;;10.50;1.35;;;5.50;99.90;;;;;;5067906;28;20086;-79
2023/03/28 08:01:11;;;;;;;5.40;0.82;;;5.70;99.90;;;;;;5068461;28;20055;-78
2023/03/28 08:03:37;;;;;;;5.75;0.63;;;6.40;99.90;;;;;;5068500;28;20076;-78
2023/03/28 08:06:05;;;;;;;9.02;1.13;;;6.60;99.90;;;;;;5068006;28;20045;-78
2023/03/28 08:08:32;;;;;;;8.05;1.38;;;6.10;99.90;;;;;;5052095;28;20409;-78
2023/03/28 08:10:57;;;;;;;6.80;1.38;;;6.30;99.90;;;;;;5066650;28;20074;-78
2023/03/28 08:13:23;;;;;;;8.48;1.25;;;6.30;99.90;;;;;;5068229;28;20036;-78
2023/03/28 08:15:58;;;;;;;5.75;1.20;;;6.40;99.90;;;;;;5067941;28;20170;-78
2023/03/28 08:18:25;;;;;;;8.38;1.15;;;7.40;99.90;;;;;;5068399;28;20040;-78
2023/03/28 08:20:57;;;;;;;13.93;1.35;;;6.60;99.90;;;;;;5052183;28;20048;-78
2023/03/28 08:23:26;;;;;;;9.07;2.10;;;6.70;99.90;;;;;;5067764;28;20107;-78
2023/03/28 08:25:58;;;;;;;11.32;1.17;;;8.30;99.90;;;;;;5068513;28;20075;-78
2023/03/28 08:28:24;;;;;;;9.85;1.95;;;7.40;99.90;;;;;;5067535;28;20044;-78
2023/03/28 08:30:50;;;;;;;8.35;1.75;;;7.30;99.90;;;;;;5068868;28;20048;-77
2023/03/28 08:33:16;;;;;;;7.55;1.17;;;8.20;99.90;;;;;;5068291;28;20044;-76
2023/03/28 08:35:42;;;;;;;5.47;0.80;;;7.80;99.90;;;;;;5066637;28;20541;-76
2023/03/28 08:38:07;;;;;;;7.38;1.48;;;7.90;99.90;;;;;;5068178;28;20416;-76
2023/03/28 08:40:37;;;;;;;6.05;0.98;;;7.90;99.90;;;;;;5066199;28;20048;-77
2023/03/28 08:43:23;;;;;;;6.55;0.95;;;8.00;99.90;;;;;;5069645;28;20470;-76
2023/03/28 08:45:58;;;;;;;3.72;0.73;;;8.40;99.90;;;;;;5067126;28;20418;-77
2023/03/28 08:48:39;;;;;;;4.22;0.52;;;8.70;99.90;;;;;;5066922;28;20483;-77
2023/03/28 08:51:29;;;;;;;8.13;0.50;;;7.80;99.90;;;;;;5068688;28;20053;-77
2023/03/28 08:54:03;;;;;;;7.93;0.50;;;7.80;99.90;;;;;;5064813;28;20059;-77
2023/03/28 08:56:31;;;;;;;3.45;0.50;;;7.80;99.90;;;;;;5066988;28;20063;-77
2023/03/28 08:59:09;;;;;;;3.72;0.55;;;7.70;99.90;;;;;;5071534;28;20099;-76
2023/03/28 09:01:35;;;;;;;4.53;0.77;;;7.70;99.90;;;;;;5069827;28;20049;-76
2023/03/28 09:04:02;;;;;;;4.43;0.75;;;7.70;99.90;;;;;;5054037;28;20422;-77
2023/03/28 09:06:41;;;;;;;11.48;1.00;;;7.70;99.90;;;;;;5051118;28;20055;-77
2023/03/28 09:09:15;;;;;;;8.18;1.35;;;7.70;99.90;;;;;;5071893;28;20131;-77
2023/03/28 09:11:56;;;;;;;9.43;1.30;;;7.70;99.90;;;;;;5071543;28;20067;-77
2023/03/28 09:14:41;;;;;;;6.53;1.00;;;7.70;99.90;;;;;;5069558;28;20482;-77
2023/03/28 09:17:13;;;;;;;7.50;0.80;;;7.90;99.90;;;;;;5071656;28;20088;-77
2023/03/28 09:20:15;;;;;;;7.75;1.00;;;8.00;99.90;;;;;;5068066;28;20044;-76
2023/03/28 09:23:16;;;;;;;4.85;0.57;;;8.00;99.90;;;;;;5068587;28;20398;-77
2023/03/28 09:25:50;;;;;;;7.95;0.60;;;8.20;99.90;;;;;;5060416;28;20563;-76
2023/03/28 09:28:40;;;;;;;5.03;1.60;;;8.40;99.90;;;;;;5067294;28;20049;-77
2023/03/28 09:31:10;;;;;;;5.28;0.70;;;8.30;99.90;;;;;;5070427;28;20507;-77
2023/03/28 09:33:39;;;;;;;6.13;0.52;;;9.40;99.90;;;;;;5069839;28;20080;-77
2023/03/28 09:36:23;;;;;;;5.35;0.60;;;8.50;99.90;;;;;;5069285;28;20036;-77
2023/03/28 09:38:57;;;;;;;5.20;0.68;;;8.70;99.90;;;;;;5070090;28;20526;-78
2023/03/28 09:41:51;;;;;;;6.35;0.50;;;8.80;99.90;;;;;;5051712;28;20438;-77
2023/03/28 09:44:18;;;;;;;5.65;0.55;;;8.90;99.90;;;;;;5069611;28;20052;-77
2023/03/28 09:46:47;;;;;;;7.20;1.55;;;8.90;99.90;;;;;;5069271;28;20037;-76
2023/03/28 09:49:24;;;;;;;5.55;0.77;;;9.20;99.90;;;;;;5067465;28;20040;-77
2023/03/28 09:51:52;;;;;;;3.63;0.60;;;9.00;99.90;;;;;;5071038;28;20445;-77
2023/03/28 09:54:28;;;;;;;3.40;0.60;;;9.10;99.90;;;;;;5069767;28;20040;-77
2023/03/28 09:57:02;;;;;;;1.52;0.45;;;8.80;99.90;;;;;;5069544;28;20403;-77
2023/03/28 09:59:30;;;;;;;3.97;0.57;;;8.70;99.90;;;;;;5069297;28;20048;-76
2023/03/28 10:01:57;;;;;;;2.88;0.57;;;8.70;99.90;;;;;;5067042;28;20063;-76
2023/03/28 10:04:29;;;;;;;3.97;0.77;;;8.70;99.90;;;;;;5069510;28;20407;-76
2023/03/28 10:07:23;;;;;;;2.40;0.80;;;8.70;99.50;;;;;;5067501;28;20063;-77
2023/03/28 10:09:53;;;;;;;5.32;0.70;;;8.70;99.90;;;;;;5067660;28;20044;-77
2023/03/28 10:12:30;;;;;;;4.22;0.90;;;8.70;99.60;;;;;;5069067;28;20049;-76
2023/03/28 10:14:56;;;;;;;5.07;1.10;;;8.80;99.30;;;;;;5067285;28;20536;-77
2023/03/28 10:17:32;;;;;;;2.25;0.60;;;8.80;98.90;;;;;;5068887;28;20079;-77
2023/03/28 10:20:14;;;;;;;3.35;0.73;;;8.90;98.30;;;;;;5067027;28;20051;-77
2023/03/28 10:22:40;;;;;;;9.68;1.15;;;9.10;98.00;;;;;;5051509;28;20523;-77
2023/03/28 10:25:12;;;;;;;9.85;0.82;;;9.30;98.30;;;;;;5070263;28;20041;-77
2023/03/28 10:27:39;;;;;;;2.70;0.80;;;9.40;97.60;;;;;;5066588;28;20190;-77
2023/03/28 10:30:29;;;;;;;1.75;0.43;;;9.40;97.40;;;;;;5068701;28;20076;-78
2023/03/28 10:33:16;;;;;;;10.68;0.90;;;9.30;96.60;;;;;;5064009;28;20053;-78
2023/03/28 10:35:56;;;;;;;3.92;1.20;;;9.30;96.60;;;;;;5067602;28;20071;-77
2023/03/28 10:38:24;;;;;;;6.50;0.80;;;9.30;97.50;;;;;;5068626;28;20513;-77
2023/03/28 10:41:09;;;;;;;2.83;0.43;;;9.30;97.90;;;;;;5066267;28;20569;-77
2023/03/28 10:43:40;;;;;;;4.05;0.85;;;9.30;97.70;;;;;;5051966;28;20080;-77
2023/03/28 10:46:20;;;;;;;4.03;1.23;;;9.20;97.90;;;;;;5067047;28;20048;-77
2023/03/28 10:48:57;;;;;;;2.33;0.45;;;9.10;97.80;;;;;;5068246;28;20056;-77
2023/03/28 10:51:24;;;;;;;3.80;0.70;;;9.10;97.50;;;;;;5067784;28;20123;-77
2023/03/28 10:54:28;;;;;;;4.80;1.23;;;9.00;97.00;;;;;;5066124;28;20056;-77
2023/03/28 10:56:59;;;;;;;4.85;0.88;;;9.10;95.80;;;;;;5059798;28;20088;-77
2023/03/28 10:59:25;;;;;;;3.72;0.52;;;9.30;96.00;;;;;;5051795;28;20360;-77
2023/03/28 11:02:18;;;;;;;5.85;0.55;;;9.40;96.10;;;;;;5066089;28;20044;-78
2023/03/28 11:04:53;;;;;;;2.55;0.60;;;9.50;95.50;;;;;;5067991;28;20048;-78
2023/03/28 11:07:34;;;;;;;6.25;0.65;;;9.70;96.40;;;;;;5066181;28;20054;-77
2023/03/28 11:10:22;;;;;;;6.25;0.88;;;9.80;96.20;;;;;;5066732;28;20132;-77
2023/03/28 11:12:57;;;;;;;6.65;1.15;;;9.80;95.60;;;;;;5051607;28;20053;-77
2023/03/28 11:15:43;;;;;;;3.47;1.05;;;9.80;95.30;;;;;;5065706;28;20055;-77
2023/03/28 11:18:36;;;;;;;5.15;1.13;;;9.60;93.50;;;;;;5068067;28;20088;-77
2023/03/28 11:21:11;;;;;;;11.15;1.65;;;9.60;94.90;;;;;;5067104;28;20204;-77
2023/03/28 11:23:43;;;;;;;5.35;1.33;;;9.60;95.60;;;;;;5066107;28;20071;-77
2023/03/28 11:26:16;;;;;;;8.68;1.20;;;9.60;95.20;;;;;;5067576;28;20464;-77
2023/03/28 11:28:41;;;;;;;4.93;1.30;;;9.50;95.70;;;;;;5065621;28;20110;-77
2023/03/28 11:31:16;;;;;;;3.55;1.05;;;9.50;96.00;;;;;;5067262;28;20083;-77
2023/03/28 11:34:01;;;;;;;8.15;2.20;;;9.60;96.30;;;;;;5066973;28;20210;-78
2023/03/28 11:36:45;;;;;;;9.15;1.23;;;9.70;96.20;;;;;;5066302;28;20383;-78
2023/03/28 11:39:18;;;;;;;6.78;1.15;;;9.70;96.10;;;;;;5067493;28;20048;-78
2023/03/28 11:41:49;;;;;;;4.70;1.20;;;9.80;96.40;;;;;;5049434;28;20084;-78
2023/03/28 11:44:31;;;;;;;6.00;1.23;;;9.90;96.00;;;;;;5068385;28;20050;-78
2023/03/28 11:47:19;;;;;;;4.88;0.80;;;9.80;95.40;;;;;;5066923;28;20084;-78
2023/03/28 11:49:53;;;;;;;3.15;1.17;;;10.60;96.00;;;;;;5065427;28;20075;-78
2023/03/28 11:52:30;;;;;;;6.88;1.55;;;9.90;95.80;;;;;;5065676;28;20238;-78
2023/03/28 11:55:21;;;;;;;3.40;1.20;;;10.20;94.60;;;;;;5065368;28;20052;-78
2023/03/28 11:58:16;;;;;;;5.22;1.55;;;10.00;93.40;;;;;;5064279;28;20115;-78
2023/03/28 12:01:06;;;;;;;7.55;1.10;;;10.00;92.50;;;;;;5066408;28;20072;-78
2023/03/28 12:03:36;;;;;;;7.53;1.13;;;10.10;92.90;;;;;;5065099;28;20530;-78
2023/03/28 12:06:34;;;;;;;8.38;1.30;;;10.20;93.90;;;;;;5047912;28;20045;-79
2023/03/28 12:09:10;;;;;;;5.68;1.58;;;10.10;91.80;;;;;;5055092;28;20082;-78
2023/03/28 12:11:52;;;;;;;7.70;1.20;;;10.30;93.50;;;;;;5064859;28;20487;-78
2023/03/28 12:14:21;;;;;;;6.72;1.58;;;10.20;93.90;;;;;;5067109;28;20091;-78
2023/03/28 12:16:50;;;;;;;8.40;1.17;;;10.30;93.40;;;;;;5065707;28;20067;-78
2023/03/28 12:19:26;;;;;;;6.78;1.65;;;10.50;92.20;;;;;;5048016;28;20059;-79
2023/03/28 12:22:07;;;;;;;3.88;1.00;;;10.60;91.70;;;;;;5050550;28;20057;-80
2023/03/28 12:25:05;;;;;;;4.75;1.23;;;10.70;90.80;;;;;;5064487;28;20087;-78
2023/03/28 12:27:53;;;;;;;5.65;1.35;;;10.80;88.20;;;;;;5047946;28;20461;-79
2023/03/28 12:30:28;;;;;;;8.85;1.67;;;11.10;90.00;;;;;;5065848;28;20052;-79
2023/03/28 12:33:00;;;;;;;1.83;0.93;;;11.40;90.40;;;;;;5066106;28;20087;-79
2023/03/28 12:35:55;;;;;;;2.80;0.93;;;11.20;90.60;;;;;;5053379;28;20131;-79
2023/03/28 12:38:28;;;;;;;3.72;1.08;;;11.10;91.10;;;;;;5048496;28;20048;-79
2023/03/28 12:41:05;;;;;;;5.78;1.17;;;11.10;91.10;;;;;;5067304;28;20037;-79
2023/03/28 12:43:39;;;;;;;8.30;1.10;;;11.20;90.90;;;;;;5070668;28;20420;-79
2023/03/28 12:46:07;;;;;;;5.15;1.02;;;11.10;90.50;;;;;;5068026;28;20122;-79
2023/03/28 12:48:48;;;;;;;8.07;1.88;;;10.90;90.30;;;;;;5068581;28;20585;-79
2023/03/28 12:51:24;;;;;;;3.13;1.05;;;11.50;89.40;;;;;;5068962;28;20098;-79
2023/03/28 12:54:15;;;;;;;7.68;1.60;;;10.50;90.00;;;;;;5068105;28;20096;-79
2023/03/28 12:56:57;;;;;;;5.93;1.42;;;10.40;90.20;;;;;;5069207;28;20055;-79
2023/03/28 13:00:01;;;;;;;7.90;1.67;;;10.50;90.20;;;;;;5068371;28;20040;-79
2023/03/28 13:02:44;;;;;;;4.32;1.30;;;10.50;88.30;;;;;;5067094;28;20044;-79
2023/03/28 13:05:15;;;;;;;5.50;1.13;;;10.40;84.80;;;;;;5069230;28;20044;-79
2023/03/28 13:08:00;;;;;;;6.57;1.33;;;10.30;89.90;;;;;;5066921;28;20497;-79
2023/03/28 13:10:59;;;;;;;4.80;2.03;;;10.40;90.10;;;;;;5067836;28;20057;-79
2023/03/28 13:13:31;;;;;;;3.15;1.02;;;10.60;85.00;;;;;;5052140;28;20049;-79
2023/03/28 13:16:14;;;;;;;5.38;1.15;;;10.60;88.00;;;;;;5066638;28;20629;-79
2023/03/28 13:19:02;;;;;;;4.55;1.25;;;10.60;86.90;;;;;;5068180;28;20521;-78